createdAt,value
2023-02-16T00:01:55.158Z,3.20
2023-02-16T00:04:45.802Z,3.20
2023-02-16T00:07:34.915Z,3.20
2023-02-16T00:10:24.341Z,3.10
2023-02-16T00:13:41.017Z,3.10
2023-02-16T00:16:30.310Z,3.20
2023-02-16T00:19:22.681Z,3.30
2023-02-16T00:22:13.398Z,3.30
2023-02-16T00:25:02.501Z,3.20
2023-02-16T00:27:51.802Z,3.30
2023-02-16T00:30:41.347Z,3.20
2023-02-16T00:33:31.833Z,3.20
2023-02-16T00:36:21.386Z,3.30
2023-02-16T00:39:12.109Z,3.30
2023-02-16T00:42:04.573Z,3.30
2023-02-16T00:44:55.877Z,3.30
2023-02-16T00:47:47.353Z,3.30
2023-02-16T00:50:36.794Z,3.30
2023-02-16T00:53:26.103Z,3.30
2023-02-16T00:56:21.305Z,3.40
2023-02-16T00:59:16.523Z,3.10
2023-02-16T01:02:05.801Z,3.20
2023-02-16T01:04:55.335Z,3.20
2023-02-16T01:08:02.571Z,3.30
2023-02-16T01:11:06.869Z,3.30
2023-02-16T01:13:58.939Z,3.20
2023-02-16T01:16:48.250Z,3.20
2023-02-16T01:19:37.497Z,3.20
2023-02-16T01:22:27.098Z,3.20
2023-02-16T01:25:17.139Z,3.20
2023-02-16T01:28:20.017Z,3.20
2023-02-16T01:31:11.934Z,3.20
2023-02-16T01:34:01.482Z,3.10
2023-02-16T01:36:51.303Z,3.10
2023-02-16T01:39:40.711Z,3.00
2023-02-16T01:42:38.578Z,3.10
2023-02-16T01:45:35.251Z,3.10
2023-02-16T01:48:29.578Z,3.10
2023-02-16T01:51:23.672Z,3.10
2023-02-16T01:54:32.804Z,3.10
2023-02-16T01:57:30.205Z,3.10
2023-02-16T02:00:29.090Z,3.10
2023-02-16T02:03:38.488Z,3.00
2023-02-16T02:06:35.000Z,3.00
2023-02-16T02:09:31.966Z,3.10
2023-02-16T02:13:38.500Z,3.10
2023-02-16T02:16:29.426Z,3.10
2023-02-16T02:19:18.858Z,3.00
2023-02-16T02:22:52.192Z,3.00
2023-02-16T02:26:14.329Z,3.00
2023-02-16T02:29:17.776Z,3.00
2023-02-16T02:32:17.951Z,2.90
2023-02-16T02:35:28.810Z,3.00
2023-02-16T02:38:25.532Z,3.00
2023-02-16T02:41:20.396Z,2.90
2023-02-16T02:44:12.132Z,2.90
2023-02-16T02:47:01.673Z,3.00
2023-02-16T02:49:52.293Z,3.00
2023-02-16T02:52:41.789Z,3.00
2023-02-16T02:55:52.311Z,3.10
2023-02-16T02:59:08.083Z,3.10
2023-02-16T03:02:02.420Z,3.10
2023-02-16T03:04:54.421Z,3.00
2023-02-16T03:07:49.185Z,3.00
2023-02-16T03:10:57.245Z,2.90
2023-02-16T03:13:49.657Z,2.80
2023-02-16T03:16:42.774Z,2.90
2023-02-16T03:19:50.741Z,2.90
2023-02-16T03:22:58.120Z,2.90
2023-02-16T03:26:04.775Z,2.90
2023-02-16T03:29:11.989Z,2.80
2023-02-16T03:32:01.478Z,2.70
2023-02-16T03:34:52.568Z,2.80
2023-02-16T03:37:42.354Z,2.80
2023-02-16T03:40:35.428Z,2.80
2023-02-16T03:43:27.989Z,2.70
2023-02-16T03:46:17.549Z,2.70
2023-02-16T03:49:06.950Z,2.60
2023-02-16T03:51:57.862Z,2.70
2023-02-16T03:54:47.288Z,2.60
2023-02-16T03:57:36.868Z,2.70
2023-02-16T04:00:26.450Z,2.70
2023-02-16T04:03:16.444Z,2.70
2023-02-16T04:06:07.515Z,2.70
2023-02-16T04:08:58.543Z,2.70
2023-02-16T04:12:05.173Z,2.60
2023-02-16T04:14:54.586Z,2.60
2023-02-16T04:17:44.160Z,2.60
2023-02-16T04:20:34.818Z,2.60
2023-02-16T04:23:24.345Z,2.60
2023-02-16T04:26:15.180Z,2.60
2023-02-16T04:29:04.640Z,2.60
2023-02-16T04:31:54.123Z,2.70
2023-02-16T04:34:43.700Z,2.70
2023-02-16T04:37:33.058Z,2.80
2023-02-16T04:40:23.212Z,2.80
2023-02-16T04:43:14.121Z,2.70
2023-02-16T04:46:03.589Z,2.80
2023-02-16T04:48:53.277Z,2.70
2023-02-16T04:51:42.676Z,2.70
2023-02-16T04:54:32.323Z,2.70
2023-02-16T04:57:24.474Z,2.70
2023-02-16T05:00:16.427Z,2.80
2023-02-16T05:03:06.010Z,2.80
2023-02-16T05:05:55.646Z,2.80
2023-02-16T05:08:45.057Z,2.80
2023-02-16T05:11:52.043Z,2.80
2023-02-16T05:14:45.379Z,2.80
2023-02-16T05:17:36.309Z,2.90
2023-02-16T05:20:46.141Z,2.80
2023-02-16T05:23:35.613Z,2.80
2023-02-16T05:26:24.977Z,2.80
2023-02-16T05:29:14.566Z,2.80
2023-02-16T05:32:04.853Z,2.90
2023-02-16T05:34:55.848Z,2.90
2023-02-16T05:37:45.305Z,2.80
2023-02-16T05:40:34.896Z,2.80
2023-02-16T05:43:24.377Z,2.80
2023-02-16T05:46:13.761Z,2.80
2023-02-16T05:49:04.049Z,2.80
2023-02-16T05:51:54.947Z,2.90
2023-02-16T05:54:44.447Z,3.00
2023-02-16T05:57:36.037Z,2.90
2023-02-16T06:00:25.819Z,2.90
2023-02-16T06:03:15.196Z,2.90
2023-02-16T06:06:05.878Z,2.90
2023-02-16T06:08:57.012Z,2.90
2023-02-16T06:11:46.767Z,2.90
2023-02-16T06:14:36.370Z,3.00
2023-02-16T06:17:25.937Z,3.10
2023-02-16T06:20:15.626Z,3.00
2023-02-16T06:23:05.107Z,2.90
2023-02-16T06:25:56.110Z,2.90
2023-02-16T06:28:45.994Z,3.00
2023-02-16T06:31:36.842Z,3.00
2023-02-16T06:34:27.080Z,3.10
2023-02-16T06:37:16.601Z,3.10
2023-02-16T06:40:06.545Z,3.10
2023-02-16T06:42:57.366Z,3.10
2023-02-16T06:45:46.927Z,3.20
2023-02-16T06:48:36.470Z,3.30
2023-02-16T06:51:26.269Z,3.30
2023-02-16T06:54:16.439Z,3.40
2023-02-16T06:57:06.097Z,3.30
2023-02-16T06:59:57.626Z,3.20
2023-02-16T07:02:47.097Z,3.10
2023-02-16T07:05:36.480Z,3.30
2023-02-16T07:08:25.759Z,3.30
2023-02-16T07:11:15.480Z,3.30
2023-02-16T07:14:04.962Z,3.30
2023-02-16T07:16:57.870Z,3.40
2023-02-16T07:19:47.279Z,3.50
2023-02-16T07:22:36.831Z,3.60
2023-02-16T07:25:26.719Z,3.50
2023-02-16T07:28:16.273Z,3.50
2023-02-16T07:31:10.431Z,3.60
2023-02-16T07:34:01.266Z,3.70
2023-02-16T07:36:50.865Z,3.80
2023-02-16T07:39:40.160Z,3.80
2023-02-16T07:42:32.753Z,3.80
2023-02-16T07:45:22.188Z,3.70
2023-02-16T07:48:11.700Z,3.60
2023-02-16T07:51:02.925Z,3.70
2023-02-16T07:53:52.538Z,3.70
2023-02-16T07:56:41.971Z,3.70
2023-02-16T07:59:31.580Z,3.60
2023-02-16T08:02:22.064Z,3.80
2023-02-16T08:05:11.543Z,3.80
2023-02-16T08:08:02.446Z,3.80
2023-02-16T08:10:51.844Z,3.90
2023-02-16T08:13:41.702Z,3.90
2023-02-16T08:16:31.793Z,4.00
2023-02-16T08:19:21.134Z,4.00
2023-02-16T08:22:12.662Z,4.00
2023-02-16T08:25:05.288Z,4.00
2023-02-16T08:27:55.938Z,4.10
2023-02-16T08:30:45.403Z,4.10
2023-02-16T08:33:35.713Z,4.30
2023-02-16T08:36:26.784Z,4.40
2023-02-16T08:39:19.345Z,4.50
2023-02-16T08:42:13.516Z,4.50
2023-02-16T08:45:02.866Z,4.60
2023-02-16T08:47:53.583Z,4.50
2023-02-16T08:50:47.377Z,4.40
2023-02-16T08:53:37.501Z,4.50
2023-02-16T08:56:26.960Z,4.40
2023-02-16T08:59:19.374Z,4.30
2023-02-16T09:02:08.933Z,4.50
2023-02-16T09:04:58.492Z,4.50
2023-02-16T09:07:49.086Z,4.60
2023-02-16T09:10:38.663Z,4.60
2023-02-16T09:13:28.245Z,4.40
2023-02-16T09:16:21.463Z,4.40
2023-02-16T09:19:10.874Z,4.50
2023-02-16T09:22:00.425Z,4.40
2023-02-16T09:24:49.738Z,4.20
2023-02-16T09:27:39.498Z,4.40
2023-02-16T09:30:29.368Z,4.50
2023-02-16T09:33:20.496Z,4.50
2023-02-16T09:36:11.895Z,4.60
2023-02-16T09:39:02.879Z,4.60
2023-02-16T09:42:13.274Z,4.40
2023-02-16T09:45:10.028Z,4.50
2023-02-16T09:48:01.068Z,4.60
2023-02-16T09:50:55.728Z,4.60
2023-02-16T09:53:47.079Z,4.60
2023-02-16T09:56:42.363Z,4.60
2023-02-16T09:59:43.611Z,4.60
2023-02-16T10:02:51.395Z,4.70
2023-02-16T10:05:48.532Z,4.80
2023-02-16T10:08:43.037Z,4.90
2023-02-16T10:11:45.951Z,4.80
2023-02-16T10:14:42.168Z,4.80
2023-02-16T10:17:40.238Z,4.60
2023-02-16T10:20:33.917Z,4.70
2023-02-16T10:23:36.419Z,4.70
2023-02-16T10:26:32.345Z,4.80
2023-02-16T10:29:24.456Z,4.80
2023-02-16T10:32:22.830Z,4.90
2023-02-16T10:35:17.756Z,4.90
2023-02-16T10:38:11.948Z,4.80
2023-02-16T10:41:06.695Z,5.00
2023-02-16T10:44:03.045Z,4.90
2023-02-16T10:46:58.302Z,5.00
2023-02-16T10:49:48.936Z,5.10
2023-02-16T10:52:42.435Z,5.10
2023-02-16T10:55:32.016Z,5.10
2023-02-16T10:58:24.171Z,5.10
2023-02-16T11:01:20.499Z,5.10
2023-02-16T11:04:10.775Z,5.20
2023-02-16T11:07:05.287Z,5.30
2023-02-16T11:10:01.690Z,5.10
2023-02-16T11:12:58.877Z,5.10
2023-02-16T11:15:55.428Z,5.30
2023-02-16T11:18:51.200Z,5.50
2023-02-16T11:21:49.757Z,5.60
2023-02-16T11:24:40.531Z,5.70
2023-02-16T11:27:30.291Z,5.80
2023-02-16T11:30:23.986Z,5.80
2023-02-16T11:33:25.519Z,5.80
2023-02-16T11:36:26.034Z,5.90
2023-02-16T11:39:22.095Z,5.60
2023-02-16T11:42:22.297Z,5.80
2023-02-16T11:45:26.099Z,6.00
2023-02-16T11:48:16.533Z,5.90
2023-02-16T11:51:08.482Z,5.80
2023-02-16T11:54:05.973Z,6.00
2023-02-16T11:57:06.962Z,5.80
2023-02-16T11:59:57.393Z,5.80
2023-02-16T12:03:12.590Z,5.70
2023-02-16T12:06:18.271Z,5.60
2023-02-16T12:09:20.466Z,5.70
2023-02-16T12:12:18.038Z,5.70
2023-02-16T12:15:19.688Z,5.50
2023-02-16T12:18:23.375Z,5.50
2023-02-16T12:21:18.420Z,5.70
2023-02-16T12:24:22.753Z,5.70
2023-02-16T12:27:20.531Z,5.70
2023-02-16T12:30:24.023Z,5.70
2023-02-16T12:33:38.977Z,5.60
2023-02-16T12:36:45.263Z,5.60
2023-02-16T12:39:42.002Z,5.60
2023-02-16T12:42:50.373Z,5.70
2023-02-16T12:45:43.847Z,5.40
2023-02-16T12:48:42.179Z,5.30
2023-02-16T12:51:37.241Z,5.30
2023-02-16T12:54:30.060Z,5.20
2023-02-16T12:57:24.743Z,5.30
2023-02-16T13:00:20.574Z,5.40
2023-02-16T13:03:25.873Z,5.40
2023-02-16T13:06:23.258Z,5.50
2023-02-16T13:09:25.403Z,5.40
2023-02-16T13:12:26.156Z,5.50
2023-02-16T13:15:18.612Z,5.40
2023-02-16T13:18:15.230Z,5.50
2023-02-16T13:21:11.279Z,5.40
2023-02-16T13:24:10.490Z,5.40
2023-02-16T13:27:12.546Z,5.40
2023-02-16T13:30:26.419Z,5.40
2023-02-16T13:33:30.176Z,5.40
2023-02-16T13:36:37.418Z,5.20
2023-02-16T13:39:48.878Z,5.10
2023-02-16T13:43:04.773Z,5.20
2023-02-16T13:45:56.049Z,5.20
2023-02-16T13:48:50.187Z,5.10
2023-02-16T13:51:44.755Z,5.10
2023-02-16T13:54:37.378Z,5.00
2023-02-16T13:58:00.539Z,5.00
2023-02-16T14:00:51.239Z,4.90
2023-02-16T14:03:42.464Z,5.00
2023-02-16T14:06:38.189Z,5.00
2023-02-16T14:09:50.481Z,5.00
2023-02-16T14:12:41.569Z,5.00
2023-02-16T14:15:31.896Z,5.00
2023-02-16T14:18:33.128Z,5.10
2023-02-16T14:21:37.659Z,5.10
2023-02-16T14:24:33.723Z,4.90
2023-02-16T14:27:42.564Z,5.00
2023-02-16T14:30:37.553Z,5.00
2023-02-16T14:33:40.512Z,5.00
2023-02-16T14:36:32.590Z,4.90
2023-02-16T14:39:23.472Z,5.00
2023-02-16T14:42:18.648Z,4.90
2023-02-16T14:45:39.068Z,4.90
2023-02-16T14:49:02.343Z,4.80
2023-02-16T14:52:25.014Z,4.70
2023-02-16T14:55:56.047Z,4.70
2023-02-16T14:58:55.971Z,4.80
2023-02-16T15:01:48.250Z,4.70
2023-02-16T15:04:40.134Z,4.80
2023-02-16T15:07:32.192Z,4.70
2023-02-16T15:10:27.174Z,4.70
2023-02-16T15:13:22.175Z,4.80
2023-02-16T15:16:16.254Z,4.80
2023-02-16T15:19:12.705Z,5.00
2023-02-16T15:22:22.548Z,4.90
2023-02-16T15:25:25.332Z,4.80
2023-02-16T15:28:22.500Z,4.70
2023-02-16T15:31:18.984Z,4.70
2023-02-16T15:34:10.216Z,4.70
2023-02-16T15:36:59.818Z,4.70
2023-02-16T15:40:12.126Z,4.70
2023-02-16T15:43:12.057Z,4.70
2023-02-16T15:46:03.497Z,4.70
2023-02-16T15:48:54.193Z,4.80
2023-02-16T15:51:58.757Z,4.80
2023-02-16T15:54:50.607Z,4.80
2023-02-16T15:57:42.299Z,4.80
2023-02-16T16:00:33.742Z,4.70
2023-02-16T16:03:24.141Z,4.70
2023-02-16T16:06:15.214Z,4.70
2023-02-16T16:09:09.595Z,4.50
2023-02-16T16:12:07.167Z,4.50
2023-02-16T16:14:59.762Z,4.60
2023-02-16T16:17:53.342Z,4.70
2023-02-16T16:20:45.256Z,4.60
2023-02-16T16:23:35.789Z,4.60
2023-02-16T16:26:28.792Z,4.60
2023-02-16T16:29:34.495Z,4.60
2023-02-16T16:32:27.766Z,4.50
2023-02-16T16:35:36.611Z,4.40
2023-02-16T16:38:29.267Z,4.50
2023-02-16T16:41:29.204Z,4.60
2023-02-16T16:44:34.596Z,4.50
2023-02-16T16:47:28.595Z,4.50
2023-02-16T16:50:35.989Z,4.50
2023-02-16T16:53:46.636Z,4.50
2023-02-16T16:56:40.647Z,4.50
2023-02-16T16:59:31.283Z,4.50
2023-02-16T17:02:23.271Z,4.40
2023-02-16T17:05:14.280Z,4.50
2023-02-16T17:08:08.730Z,4.50
2023-02-16T17:10:59.014Z,4.50
2023-02-16T17:13:50.790Z,4.50
2023-02-16T17:16:45.686Z,4.50
2023-02-16T17:19:36.384Z,4.40
2023-02-16T17:22:26.925Z,4.50
2023-02-16T17:25:20.011Z,4.50
2023-02-16T17:28:11.272Z,4.50
2023-02-16T17:31:01.662Z,4.50
2023-02-16T17:33:53.588Z,4.60
2023-02-16T17:36:45.029Z,4.50
2023-02-16T17:39:36.461Z,4.50
2023-02-16T17:42:28.936Z,4.60
2023-02-16T17:45:23.088Z,4.60
2023-02-16T17:52:02.724Z,4.50
2023-02-16T17:54:55.261Z,4.60
2023-02-16T17:57:47.230Z,4.60
2023-02-16T18:00:38.452Z,4.60
2023-02-16T18:03:29.542Z,4.60
2023-02-16T18:06:23.348Z,4.70
2023-02-16T18:09:28.472Z,4.50
2023-02-16T18:12:19.672Z,4.50
2023-02-16T18:15:28.793Z,4.60
2023-02-16T18:18:29.507Z,4.70
2023-02-16T18:21:28.448Z,4.60
2023-02-16T18:24:20.067Z,4.70
2023-02-16T18:27:17.727Z,4.60
2023-02-16T18:30:20.604Z,4.60
2023-02-16T18:33:13.745Z,4.50
2023-02-16T18:36:17.190Z,4.60
2023-02-16T18:39:18.574Z,4.60
2023-02-16T18:42:15.705Z,4.60
2023-02-16T18:45:08.262Z,4.50
2023-02-16T18:48:05.712Z,4.60
2023-02-16T18:50:58.846Z,4.60
2023-02-16T18:54:06.183Z,4.70
2023-02-16T18:57:03.783Z,4.60
2023-02-16T18:59:56.193Z,4.70
2023-02-16T19:02:54.199Z,4.60
2023-02-16T19:05:46.108Z,4.60
2023-02-16T19:08:49.275Z,4.70
2023-02-16T19:11:47.714Z,4.70
2023-02-16T19:14:46.884Z,4.70
2023-02-16T19:17:45.818Z,4.70
2023-02-16T19:20:36.773Z,4.70
2023-02-16T19:23:34.821Z,4.70
2023-02-16T19:26:30.502Z,4.80
2023-02-16T19:29:34.910Z,4.80
2023-02-16T19:32:33.593Z,4.80
2023-02-16T19:35:31.656Z,4.80
2023-02-16T19:38:29.914Z,4.70
2023-02-16T19:41:29.830Z,4.70
2023-02-16T19:44:22.911Z,4.60
2023-02-16T19:47:22.901Z,4.60
2023-02-16T19:50:21.462Z,4.70
2023-02-16T19:53:19.831Z,4.60
2023-02-16T19:56:19.859Z,4.60
2023-02-16T19:59:21.868Z,4.60
2023-02-16T20:02:16.522Z,4.60
2023-02-16T20:05:16.775Z,4.70
2023-02-16T20:08:08.056Z,4.70
2023-02-16T20:11:22.925Z,4.90
2023-02-16T20:14:39.990Z,4.90
2023-02-16T20:17:39.132Z,4.90
2023-02-16T20:20:37.786Z,4.80
2023-02-16T20:23:38.821Z,4.80
2023-02-16T20:26:39.829Z,4.80
2023-02-16T20:29:44.323Z,4.70
2023-02-16T20:32:38.957Z,4.70
2023-02-16T20:35:37.865Z,4.80
2023-02-16T20:38:28.178Z,4.80
2023-02-16T20:41:27.799Z,4.60
2023-02-16T20:44:19.680Z,4.50
2023-02-16T20:47:17.861Z,4.30
2023-02-16T20:50:09.321Z,3.90
2023-02-16T20:53:08.336Z,3.80
2023-02-16T20:56:04.695Z,3.70
2023-02-16T20:59:03.795Z,3.70
2023-02-16T21:01:58.460Z,3.60
2023-02-16T21:04:55.720Z,3.50
2023-02-16T21:07:49.098Z,3.50
2023-02-16T21:10:50.310Z,3.50
2023-02-16T21:13:47.424Z,3.40
2023-02-16T21:16:46.137Z,3.40
2023-02-16T21:19:56.584Z,3.40
2023-02-16T21:22:49.213Z,3.40
2023-02-16T21:25:48.897Z,3.30
2023-02-16T21:28:46.738Z,3.20
2023-02-16T21:31:45.491Z,3.00
2023-02-16T21:34:35.015Z,3.00
2023-02-16T21:37:33.500Z,2.90
2023-02-16T21:40:49.786Z,2.80
2023-02-16T21:43:47.664Z,2.70
2023-02-16T21:46:46.267Z,2.60
2023-02-16T21:49:34.860Z,2.60
2023-02-16T21:52:31.294Z,2.50
2023-02-16T21:55:44.335Z,2.50
2023-02-16T21:58:36.283Z,2.40
2023-02-16T22:01:36.260Z,2.40
2023-02-16T22:04:25.735Z,2.30
2023-02-16T22:07:21.313Z,2.20
2023-02-16T22:10:11.531Z,2.20
2023-02-16T22:13:08.319Z,2.20
2023-02-16T22:16:10.310Z,2.30
2023-02-16T22:19:08.341Z,2.30
2023-02-16T22:21:58.048Z,2.30
2023-02-16T22:24:54.375Z,2.10
2023-02-16T22:27:50.251Z,2.10
2023-02-16T22:30:39.595Z,2.00
2023-02-16T22:33:35.317Z,2.00
2023-02-16T22:36:33.304Z,2.00
2023-02-16T22:39:31.400Z,2.10
2023-02-16T22:42:20.897Z,2.10
2023-02-16T22:45:17.297Z,2.10
2023-02-16T22:48:06.897Z,2.10
2023-02-16T22:51:06.280Z,2.00
2023-02-16T22:54:47.815Z,2.10
2023-02-16T23:01:49.443Z,2.10
2023-02-16T23:04:45.336Z,2.20
2023-02-16T23:07:42.293Z,2.20
2023-02-16T23:10:39.332Z,2.20
2023-02-16T23:13:30.035Z,2.20
2023-02-16T23:16:25.118Z,2.20
2023-02-16T23:19:21.813Z,2.30
2023-02-16T23:22:11.413Z,2.40
2023-02-16T23:25:21.625Z,2.50
2023-02-16T23:28:13.229Z,2.60
2023-02-16T23:31:03.029Z,2.70
2023-02-16T23:33:53.672Z,2.80
2023-02-16T23:36:44.885Z,2.80
2023-02-16T23:39:34.216Z,2.90
2023-02-16T23:42:26.102Z,2.90
2023-02-16T23:45:15.342Z,2.90
2023-02-16T23:48:05.822Z,3.00
2023-02-16T23:50:55.682Z,3.00
2023-02-16T23:53:47.144Z,3.00
2023-02-16T23:56:36.508Z,3.00
2023-02-16T23:59:28.323Z,2.90
